Time;durP1;ratioP1;P1;durP2;ratioP2;P2;SDS_P1;SDS_P2;PMS_P1;PMS_P2;Temp;Humidity;BMP_temperature;BMP_pressure;BME280_temperature;BME280_humidity;BME280_pressure;Samples;Min_cycle;Max_cycle;Signal;HPM_P1;HPM_P2
2022/10/08 00:01:20;;;;;;;7.65;3.85;;;13.10;99.90;;;;;;5116476;28;20123;-82
2022/10/08 00:03:49;;;;;;;9.48;3.53;;;12.90;99.90;;;;;;5097475;28;20061;-81
2022/10/08 00:06:29;;;;;;;10.32;3.83;;;13.10;99.90;;;;;;5116003;28;20032;-82
2022/10/08 00:09:01;;;;;;;8.32;3.40;;;13.10;99.90;;;;;;5114719;28;20407;-80
2022/10/08 00:11:29;;;;;;;8.15;3.25;;;13.10;99.90;;;;;;5097481;28;20051;-79
2022/10/08 00:13:56;;;;;;;5.88;2.55;;;13.00;99.90;;;;;;5115819;28;20082;-79
2022/10/08 00:16:38;;;;;;;9.98;2.90;;;13.00;99.90;;;;;;5115766;28;20054;-81
2022/10/08 00:19:06;;;;;;;5.97;3.25;;;13.00;99.90;;;;;;5115732;28;20047;-81
2022/10/08 00:21:36;;;;;;;6.75;3.15;;;13.10;99.90;;;;;;5097129;28;20093;-81
2022/10/08 00:24:04;;;;;;;8.27;3.17;;;13.10;99.90;;;;;;5114374;28;20110;-82
2022/10/08 00:26:32;;;;;;;9.13;2.13;;;13.00;99.90;;;;;;5114309;28;20082;-81
2022/10/08 00:29:01;;;;;;;5.85;2.17;;;12.70;99.90;;;;;;5114963;28;20360;-81
2022/10/08 00:31:31;;;;;;;6.22;2.63;;;13.00;99.90;;;;;;5115440;28;20169;-83
2022/10/08 00:33:58;;;;;;;5.53;2.28;;;13.00;99.90;;;;;;5113797;28;20431;-80
2022/10/08 00:36:27;;;;;;;5.95;2.72;;;12.90;99.90;;;;;;5115202;28;20047;-79
2022/10/08 00:39:03;;;;;;;4.53;2.08;;;13.00;99.90;;;;;;5115204;28;20062;-77
2022/10/08 00:41:31;;;;;;;3.80;2.03;;;;;;;;;;5113799;28;20046;-77
2022/10/08 00:44:02;;;;;;;8.25;2.53;;;13.20;99.90;;;;;;5113899;28;20048;-78
2022/10/08 00:46:42;;;;;;;6.10;2.53;;;13.00;99.90;;;;;;5114204;28;20051;-80
2022/10/08 00:49:11;;;;;;;10.23;3.15;;;13.00;99.90;;;;;;5113991;28;20047;-77
2022/10/08 00:51:40;;;;;;;5.28;2.08;;;12.80;99.90;;;;;;5114582;28;20522;-90
2022/10/08 00:54:06;;;;;;;2.85;1.85;;;12.90;99.90;;;;;;5114253;28;20468;-78
2022/10/08 00:56:36;;;;;;;3.17;1.58;;;12.80;99.90;;;;;;5113737;28;20130;-81
2022/10/08 00:59:02;;;;;;;5.70;2.20;;;12.60;99.90;;;;;;5113598;28;20050;-78
2022/10/08 01:01:28;;;;;;;3.33;2.38;;;;;;;;;;5113915;28;20043;-89
2022/10/08 01:03:55;;;;;;;4.78;1.83;;;13.00;99.90;;;;;;5114216;28;20468;-93
2022/10/08 01:06:29;;;;;;;4.68;1.80;;;12.70;99.90;;;;;;5115663;28;20086;-86
2022/10/08 01:09:43;;;;;;;2.75;1.77;;;12.80;99.90;;;;;;5114387;28;20529;-86
2022/10/08 01:12:33;;;;;;;4.07;1.70;;;12.70;99.90;;;;;;5113122;28;20047;-81
2022/10/08 01:15:01;;;;;;;3.42;1.52;;;;;;;;;;5114613;27;20056;-82
2022/10/08 01:17:50;;;;;;;2.78;2.20;;;12.70;99.90;;;;;;5114558;28;20044;-82
2022/10/08 01:20:46;;;;;;;5.22;2.53;;;12.80;99.90;;;;;;5114597;28;20050;-82
2022/10/08 01:23:32;;;;;;;8.80;3.08;;;12.80;99.90;;;;;;5095993;28;20073;-80
2022/10/08 01:26:20;;;;;;;5.85;1.75;;;12.60;99.90;;;;;;5113290;28;20062;-79
2022/10/08 01:29:12;;;;;;;4.18;1.88;;;12.70;99.90;;;;;;5114495;28;20464;-82
2022/10/08 01:31:49;;;;;;;6.10;1.98;;;12.30;99.90;;;;;;5114399;28;20047;-81
2022/10/08 01:34:34;;;;;;;3.00;1.52;;;12.80;99.90;;;;;;5113870;28;20137;-82
2022/10/08 01:37:03;;;;;;;3.30;1.60;;;12.70;99.90;;;;;;5078564;28;20101;-80
2022/10/08 01:39:33;;;;;;;4.80;1.67;;;12.50;99.90;;;;;;5112997;28;20085;-81
2022/10/08 01:42:02;;;;;;;3.92;1.92;;;12.60;99.90;;;;;;5095926;28;20047;-81
2022/10/08 01:44:38;;;;;;;4.72;2.13;;;12.50;99.90;;;;;;5114055;28;20039;-80
2022/10/08 01:47:08;;;;;;;5.20;1.92;;;12.30;99.90;;;;;;5112588;28;20563;-83
2022/10/08 01:49:43;;;;;;;5.13;1.67;;;12.50;99.90;;;;;;5095591;28;20051;-81
2022/10/08 01:52:22;;;;;;;3.15;1.73;;;12.50;99.90;;;;;;5112603;28;20090;-81
2022/10/08 01:54:52;;;;;;;4.18;1.80;;;12.40;99.90;;;;;;5112472;28;20039;-82
2022/10/08 01:57:19;;;;;;;4.65;2.13;;;;;;;;;;5113344;28;20050;-82
2022/10/08 01:59:52;;;;;;;3.90;1.73;;;12.40;99.90;;;;;;5113425;28;20040;-93
2022/10/08 02:02:22;;;;;;;4.97;1.60;;;12.40;99.90;;;;;;5113438;28;20051;-94
2022/10/08 02:04:50;;;;;;;7.53;2.00;;;12.40;99.90;;;;;;5113671;28;20050;-91
2022/10/08 02:07:27;;;;;;;5.07;1.55;;;12.40;99.90;;;;;;5096610;28;20050;-84
2022/10/08 02:10:07;;;;;;;6.60;1.70;;;12.30;99.90;;;;;;5113560;28;20403;-83
2022/10/08 02:12:33;;;;;;;3.17;1.55;;;12.30;99.90;;;;;;5113537;28;20039;-94
2022/10/08 02:14:59;;;;;;;3.63;1.80;;;;;;;;;;5113563;28;20050;-92
2022/10/08 02:18:15;;;;;;;4.25;1.83;;;12.30;99.90;;;;;;5096891;28;20044;-89
2022/10/08 02:21:03;;;;;;;3.40;1.60;;;12.30;99.90;;;;;;5112494;28;20066;-92
2022/10/08 02:23:50;;;;;;;4.22;2.20;;;12.30;99.90;;;;;;5117634;28;20479;-89
2022/10/08 02:26:20;;;;;;;8.00;1.95;;;12.30;99.90;;;;;;5117396;28;20039;-90
2022/10/08 02:28:46;;;;;;;6.30;1.70;;;;;;;;;;5117553;28;20043;-93
2022/10/08 02:31:15;;;;;;;2.72;1.90;;;;;;;;;;5117605;28;20464;-89
2022/10/08 02:33:53;;;;;;;5.40;2.03;;;12.10;99.90;;;;;;5117490;28;20091;-94
2022/10/08 02:36:24;;;;;;;4.88;2.03;;;11.90;99.90;;;;;;5116200;28;20093;-83
2022/10/08 02:38:53;;;;;;;3.95;1.92;;;12.10;99.90;;;;;;5117762;28;20044;-82
2022/10/08 02:41:21;;;;;;;7.38;2.60;;;12.10;99.90;;;;;;5117313;28;20475;-81
2022/10/08 02:43:49;;;;;;;5.40;2.28;;;12.10;99.90;;;;;;5115971;28;20051;-82
2022/10/08 02:46:20;;;;;;;8.00;1.95;;;11.90;99.90;;;;;;5117629;28;20040;-82
2022/10/08 02:49:07;;;;;;;5.38;2.30;;;11.90;99.90;;;;;;5116288;28;20210;-83
2022/10/08 02:51:37;;;;;;;9.95;2.83;;;11.90;99.90;;;;;;5116284;28;20048;-83
2022/10/08 02:54:05;;;;;;;4.53;2.15;;;12.00;99.90;;;;;;5115799;28;20050;-82
2022/10/08 02:56:38;;;;;;;5.18;2.28;;;11.80;99.90;;;;;;5115876;28;20122;-83
2022/10/08 02:59:04;;;;;;;5.70;1.93;;;12.10;99.90;;;;;;5115781;28;20048;-82
2022/10/08 03:01:44;;;;;;;6.35;2.30;;;11.90;99.90;;;;;;5099028;28;20292;-82
2022/10/08 03:04:16;;;;;;;4.63;2.70;;;11.80;99.90;;;;;;5115694;28;20044;-83
2022/10/08 03:06:43;;;;;;;12.35;2.72;;;11.80;99.90;;;;;;5098924;28;20147;-82
2022/10/08 03:09:12;;;;;;;11.25;2.35;;;11.80;99.90;;;;;;5117071;28;20127;-82
2022/10/08 03:11:38;;;;;;;6.72;1.73;;;11.70;99.90;;;;;;5115513;28;20043;-77
2022/10/08 03:14:08;;;;;;;6.53;2.22;;;11.60;99.90;;;;;;5115648;28;20047;-77
2022/10/08 03:16:40;;;;;;;9.57;2.15;;;11.60;99.90;;;;;;5116998;28;20048;-81
2022/10/08 03:19:07;;;;;;;4.00;2.08;;;11.70;99.90;;;;;;5115393;28;20046;-79
2022/10/08 03:21:34;;;;;;;5.80;2.15;;;12.00;99.90;;;;;;5115356;28;20050;-82
2022/10/08 03:23:59;;;;;;;8.32;3.55;;;11.80;99.90;;;;;;5116838;28;20040;-82
2022/10/08 03:26:25;;;;;;;6.07;2.40;;;;;;;;;;5115248;28;20109;-81
2022/10/08 03:28:52;;;;;;;7.50;2.60;;;11.80;99.90;;;;;;5114698;28;20452;-82
2022/10/08 03:31:18;;;;;;;6.25;2.92;;;;;;;;;;5097496;28;20039;-82
2022/10/08 03:33:49;;;;;;;3.45;2.25;;;11.70;99.90;;;;;;5114970;28;20047;-82
2022/10/08 03:36:14;;;;;;;11.77;2.50;;;11.80;99.90;;;;;;5115332;28;20516;-82
2022/10/08 03:38:40;;;;;;;5.75;2.63;;;;;;;;;;5116612;28;20096;-82
2022/10/08 03:41:08;;;;;;;5.47;2.08;;;11.80;99.90;;;;;;5116574;28;20407;-82
2022/10/08 03:43:34;;;;;;;11.48;2.35;;;11.90;99.90;;;;;;5115083;28;20048;-82
2022/10/08 03:46:00;;;;;;;10.77;2.75;;;;;;;;;;5099347;28;20051;-95
2022/10/08 03:48:27;;;;;;;10.80;2.53;;;;;;;;;;5117822;28;20122;-93
2022/10/08 03:50:55;;;;;;;8.88;3.17;;;11.90;99.90;;;;;;5099332;28;20043;-95
2022/10/08 03:53:21;;;;;;;8.68;2.85;;;11.90;99.90;;;;;;5115938;28;20048;-94
2022/10/08 03:55:47;;;;;;;6.70;2.28;;;;;;;;;;5117714;27;20039;-92
2022/10/08 03:58:14;;;;;;;8.30;3.00;;;;;;;;;;5117636;28;20075;-95
2022/10/08 04:00:40;;;;;;;10.77;3.25;;;;;;;;;;5117087;28;20050;-92
2022/10/08 04:03:05;;;;;;;9.55;2.60;;;;;;;;;;5098746;28;20036;-90
2022/10/08 04:05:32;;;;;;;5.95;2.33;;;;;;;;;;5116015;28;20044;-85
2022/10/08 04:07:57;;;;;;;8.93;2.17;;;11.80;99.90;;;;;;5098415;28;20483;-91
2022/10/08 04:10:23;;;;;;;7.95;2.30;;;;;;;;;;5115375;28;20040;-93
2022/10/08 04:12:49;;;;;;;9.43;2.85;;;;;;;;;;5115751;28;20051;-84
2022/10/08 04:15:15;;;;;;;10.82;2.63;;;;;;;;;;5098264;28;20047;-92
2022/10/08 04:17:42;;;;;;;11.95;2.65;;;;;;;;;;5115064;28;20047;-87
2022/10/08 04:20:08;;;;;;;7.70;3.20;;;11.80;99.90;;;;;;5116537;28;20040;-93
2022/10/08 04:22:34;;;;;;;7.47;2.47;;;;;;;;;;5117125;28;20108;-93
2022/10/08 04:25:00;;;;;;;9.77;2.50;;;;;;;;;;5116672;28;20043;-90
2022/10/08 04:27:26;;;;;;;7.50;2.60;;;;;;;;;;5114146;28;20048;-80
2022/10/08 04:29:52;;;;;;;13.05;3.20;;;11.70;99.90;;;;;;5114023;28;20044;-81
2022/10/08 04:32:18;;;;;;;5.25;2.45;;;;;;;;;;5114984;28;20039;-82
2022/10/08 04:34:43;;;;;;;9.02;2.70;;;11.50;99.90;;;;;;5113856;28;20168;-82
2022/10/08 04:37:09;;;;;;;7.55;2.75;;;;;;;;;;5096919;28;20468;-82
2022/10/08 04:39:35;;;;;;;12.90;2.40;;;;;;;;;;5113868;28;20097;-83
2022/10/08 04:42:01;;;;;;;10.52;3.50;;;;;;;;;;5113651;28;20040;-82
2022/10/08 04:44:27;;;;;;;8.30;2.65;;;;;;;;;;5113550;28;20051;-82
2022/10/08 04:46:54;;;;;;;7.85;2.53;;;;;;;;;;5113750;28;20093;-77
2022/10/08 04:49:20;;;;;;;11.50;2.20;;;;;;;;;;5115187;28;20047;-79
2022/10/08 04:51:46;;;;;;;9.35;3.33;;;;;;;;;;5096497;28;20552;-82
2022/10/08 04:54:12;;;;;;;7.43;2.50;;;;;;;;;;5096422;28;20055;-81
2022/10/08 04:56:38;;;;;;;11.38;2.63;;;;;;;;;;5114912;28;20173;-78
2022/10/08 04:59:04;;;;;;;9.40;3.00;;;;;;;;;;5113743;28;20134;-81
2022/10/08 05:01:30;;;;;;;8.43;2.50;;;;;;;;;;5114651;28;20047;-81
2022/10/08 05:03:57;;;;;;;5.93;2.40;;;11.40;99.90;;;;;;5113487;28;20035;-82
2022/10/08 05:06:24;;;;;;;8.73;2.78;;;;;;;;;;5096610;28;20071;-83
2022/10/08 05:08:51;;;;;;;10.73;2.50;;;;;;;;;;5113172;28;20457;-82
2022/10/08 05:11:17;;;;;;;9.52;3.03;;;11.30;99.90;;;;;;5113172;28;20523;-80
2022/10/08 05:13:48;;;;;;;8.65;2.38;;;11.00;99.90;;;;;;5114215;28;20443;-79
2022/10/08 05:16:16;;;;;;;9.80;2.90;;;11.20;99.90;;;;;;5096096;28;20492;-81
2022/10/08 05:18:41;;;;;;;10.52;2.65;;;10.80;99.90;;;;;;5096736;28;20500;-79
2022/10/08 05:21:13;;;;;;;6.72;3.10;;;11.20;99.90;;;;;;5113261;28;20055;-82
2022/10/08 05:23:41;;;;;;;10.27;3.28;;;;;;;;;;5079584;28;20096;-77
2022/10/08 05:26:28;;;;;;;9.45;2.80;;;11.10;99.90;;;;;;5114891;28;20051;-78
2022/10/08 05:28:56;;;;;;;8.05;2.30;;;11.00;99.90;;;;;;5113424;28;20051;-86
2022/10/08 05:31:23;;;;;;;10.50;2.83;;;11.00;99.90;;;;;;5097130;28;20055;-92
2022/10/08 05:33:50;;;;;;;5.03;2.30;;;;;;;;;;5113794;28;20051;-90
2022/10/08 05:36:24;;;;;;;14.57;3.22;;;10.90;99.90;;;;;;5097497;28;20399;-76
2022/10/08 05:38:50;;;;;;;10.15;2.53;;;10.90;99.90;;;;;;5114133;28;20039;-77
2022/10/08 05:41:44;;;;;;;9.05;3.20;;;10.90;99.90;;;;;;5096543;28;20050;-91
2022/10/08 05:44:10;;;;;;;4.47;2.13;;;10.90;99.90;;;;;;5093915;28;20102;-93
2022/10/08 05:46:37;;;;;;;6.97;2.85;;;;;;;;;;5096512;28;20130;-90
2022/10/08 05:49:05;;;;;;;15.15;3.17;;;10.70;99.90;;;;;;5095576;28;20043;-89
2022/10/08 05:51:32;;;;;;;11.88;2.97;;;;;;;;;;5096177;28;20035;-90
2022/10/08 05:53:58;;;;;;;10.27;3.15;;;10.70;99.90;;;;;;5095105;28;20044;-90
2022/10/08 05:56:26;;;;;;;4.35;2.47;;;10.80;99.90;;;;;;5096177;28;20150;-88
2022/10/08 05:58:52;;;;;;;11.45;3.30;;;10.80;99.90;;;;;;5096216;28;20039;-92
2022/10/08 06:01:20;;;;;;;7.20;3.08;;;;;;;;;;5096138;28;20040;-91
2022/10/08 06:03:54;;;;;;;8.20;2.90;;;10.70;99.90;;;;;;5096379;28;20040;-92
2022/10/08 06:06:19;;;;;;;;;;;10.60;99.90;;;;;;5096485;28;20040;-87
2022/10/08 06:08:46;;;;;;;10.00;2.22;;;;;;;;;;5096072;28;19973;-87
2022/10/08 06:11:12;;;;;;;9.38;2.88;;;;;;;;;;5096417;28;20082;-86
2022/10/08 06:13:38;;;;;;;9.07;2.67;;;;;;;;;;5095748;28;20411;-86
2022/10/08 06:16:07;;;;;;;4.38;2.28;;;10.60;99.90;;;;;;5096198;28;20372;-90
2022/10/08 06:18:35;;;;;;;17.15;2.72;;;;;;;;;;5115092;28;20043;-89
2022/10/08 06:21:06;;;;;;;6.85;3.15;;;;;;;;;;5114142;28;20067;-85
2022/10/08 06:23:32;;;;;;;10.85;2.78;;;;;;;;;;5113108;28;20380;-87
2022/10/08 06:26:04;;;;;;;14.48;2.85;;;;;;;;;;5113359;28;20043;-93
2022/10/08 06:28:31;;;;;;;12.52;3.65;;;;;;;;;;5112965;28;20134;-87
2022/10/08 06:30:58;;;;;;;11.80;2.90;;;10.70;99.90;;;;;;5113273;28;20389;-85
2022/10/08 06:33:24;;;;;;;7.57;2.15;;;;;;;;;;5112505;28;20052;-85
2022/10/08 06:35:50;;;;;;;11.18;2.30;;;;;;;;;;5113382;28;20043;-87
2022/10/08 06:38:16;;;;;;;5.43;2.15;;;;;;;;;;5114290;28;20489;-77
2022/10/08 06:40:42;;;;;;;5.50;2.22;;;;;;;;;;5113955;28;20052;-79
2022/10/08 06:43:16;;;;;;;6.22;2.30;;;11.00;99.90;;;;;;5094871;28;20043;-78
2022/10/08 06:45:44;;;;;;;8.40;2.75;;;11.20;99.90;;;;;;5112032;28;20035;-79
2022/10/08 06:48:11;;;;;;;6.80;1.80;;;11.10;99.90;;;;;;5111995;28;20475;-80
2022/10/08 06:50:37;;;;;;;8.02;2.22;;;;;;;;;;5111960;28;20104;-80
2022/10/08 06:53:03;;;;;;;8.80;2.47;;;;;;;;;;5112204;28;20584;-80
2022/10/08 06:55:31;;;;;;;12.77;3.08;;;10.90;99.90;;;;;;5111866;28;20052;-78
2022/10/08 06:57:57;;;;;;;5.22;2.25;;;;;;;;;;5111960;28;20499;-78
2022/10/08 07:00:23;;;;;;;5.90;2.25;;;;;;;;;;5112732;28;20392;-79
2022/10/08 07:02:49;;;;;;;6.93;2.00;;;;;;;;;;5111879;28;20069;-80
2022/10/08 07:05:15;;;;;;;13.73;2.67;;;11.00;99.90;;;;;;5115209;28;20051;-78
2022/10/08 07:07:41;;;;;;;6.13;1.80;;;;;;;;;;5117565;28;20047;-80
2022/10/08 07:10:07;;;;;;;11.23;2.28;;;;;;;;;;5098738;28;20100;-78
2022/10/08 07:12:33;;;;;;;12.52;2.72;;;;;;;;;;5115961;28;20555;-82
2022/10/08 07:14:59;;;;;;;4.93;2.83;;;;;;;;;;5098637;28;20495;-82
2022/10/08 07:17:27;;;;;;;11.93;1.98;;;;;;;;;;5098668;28;20039;-81
2022/10/08 07:19:57;;;;;;;6.55;1.48;;;;;;;;;;5116621;28;20126;-80
2022/10/08 07:22:23;;;;;;;9.30;1.65;;;11.40;99.90;;;;;;5115303;28;20110;-80
2022/10/08 07:24:50;;;;;;;3.85;1.73;;;;;;;;;;5115282;28;20047;-79
2022/10/08 07:27:16;;;;;;;4.47;1.70;;;11.20;99.90;;;;;;5115570;28;20077;-81
2022/10/08 07:29:42;;;;;;;3.35;1.63;;;11.40;99.90;;;;;;5115200;28;20040;-79
2022/10/08 07:32:08;;;;;;;1.95;0.98;;;;;;;;;;5115117;28;20051;-81
2022/10/08 07:34:34;;;;;;;4.63;1.50;;;11.00;99.90;;;;;;5097792;28;20051;-80
2022/10/08 07:37:00;;;;;;;3.75;1.10;;;;;;;;;;5098283;28;20103;-81
2022/10/08 07:39:26;;;;;;;3.50;1.27;;;;;;;;;;5098300;28;20047;-78
2022/10/08 07:41:52;;;;;;;7.70;1.42;;;;;;;;;;5115099;28;20047;-80
2022/10/08 07:44:19;;;;;;;1.92;1.30;;;;;;;;;;5114947;28;20044;-78
2022/10/08 07:46:47;;;;;;;5.13;1.50;;;11.40;99.90;;;;;;5098326;28;20055;-79
2022/10/08 07:49:15;;;;;;;5.55;1.25;;;11.50;99.90;;;;;;5098107;28;20051;-77
2022/10/08 07:51:41;;;;;;;4.47;1.40;;;11.60;99.90;;;;;;5097809;28;20126;-78
2022/10/08 07:54:07;;;;;;;2.47;1.40;;;11.60;99.90;;;;;;5114906;28;20172;-78
2022/10/08 07:56:34;;;;;;;6.70;1.60;;;11.60;99.90;;;;;;5097748;28;20126;-77
2022/10/08 07:59:01;;;;;;;5.43;1.25;;;11.50;99.90;;;;;;5098251;28;20046;-81
2022/10/08 08:01:28;;;;;;;3.58;1.60;;;11.90;99.90;;;;;;5097785;28;20096;-81
2022/10/08 08:04:00;;;;;;;7.10;1.60;;;11.60;99.90;;;;;;5114558;28;20047;-81
2022/10/08 08:06:27;;;;;;;5.60;1.55;;;11.50;99.90;;;;;;5097806;28;20123;-82
2022/10/08 08:08:53;;;;;;;6.00;1.45;;;11.90;99.90;;;;;;5114755;28;20043;-81
2022/10/08 08:11:20;;;;;;;5.05;1.30;;;;;;;;;;5097438;28;20396;-82
2022/10/08 08:13:46;;;;;;;4.75;1.45;;;;;;;;;;5114255;28;20043;-80
2022/10/08 08:16:30;;;;;;;4.40;1.50;;;12.30;99.90;;;;;;5113669;28;20138;-81
2022/10/08 08:18:59;;;;;;;7.03;1.42;;;12.50;99.90;;;;;;5114594;28;20373;-79
2022/10/08 08:21:29;;;;;;;5.00;1.58;;;;;;;;;;5097221;28;20568;-81
2022/10/08 08:23:57;;;;;;;5.95;1.83;;;12.50;99.90;;;;;;5097080;28;20044;-81
2022/10/08 08:26:31;;;;;;;7.65;1.65;;;12.60;99.90;;;;;;5114120;28;20055;-81
2022/10/08 08:29:01;;;;;;;;;;;12.70;99.90;;;;;;5114527;28;20051;-81
2022/10/08 08:31:30;;;;;;;6.40;1.52;;;12.80;99.90;;;;;;5097001;28;19939;-78
2022/10/08 08:34:02;;;;;;;8.35;1.95;;;12.70;99.90;;;;;;5113755;28;20054;-79
2022/10/08 08:36:30;;;;;;;6.45;1.60;;;12.90;99.90;;;;;;5113962;28;20052;-78
2022/10/08 08:38:56;;;;;;;5.28;1.58;;;12.90;99.90;;;;;;5113858;28;20047;-76
2022/10/08 08:41:47;;;;;;;4.13;2.03;;;12.90;99.90;;;;;;5113986;28;20115;-77
2022/10/08 08:44:18;;;;;;;6.20;2.03;;;;;;;;;;5114069;28;20044;-78
2022/10/08 08:47:03;;;;;;;3.33;1.55;;;12.80;99.90;;;;;;5096784;28;20093;-78
2022/10/08 08:49:42;;;;;;;5.60;1.52;;;13.10;99.90;;;;;;5115005;28;20123;-77
2022/10/08 08:52:13;;;;;;;9.00;1.73;;;12.90;99.90;;;;;;5096618;28;20054;-81
2022/10/08 08:54:39;;;;;;;9.55;1.50;;;13.20;99.90;;;;;;5114073;28;20133;-78
2022/10/08 08:57:29;;;;;;;8.10;1.30;;;13.20;99.90;;;;;;5096773;28;20094;-77
2022/10/08 09:00:00;;;;;;;9.38;1.70;;;13.70;99.90;;;;;;5096294;28;20039;-83
2022/10/08 09:02:34;;;;;;;3.00;2.10;;;13.70;99.90;;;;;;5113397;28;20040;-76
2022/10/08 09:05:05;;;;;;;8.40;1.83;;;13.70;99.90;;;;;;5096186;28;20043;-77
2022/10/08 09:07:45;;;;;;;6.65;1.60;;;13.70;99.90;;;;;;5113361;28;20118;-76
2022/10/08 09:10:19;;;;;;;7.85;1.45;;;13.90;99.90;;;;;;5113309;28;20043;-80
2022/10/08 09:12:51;;;;;;;9.43;1.77;;;14.10;99.90;;;;;;5113391;28;20170;-77
2022/10/08 09:15:22;;;;;;;4.18;1.83;;;14.00;99.90;;;;;;5113116;28;20055;-77
2022/10/08 09:17:51;;;;;;;4.63;1.55;;;14.20;99.90;;;;;;5096307;28;20130;-79
2022/10/08 09:20:20;;;;;;;7.97;1.63;;;14.10;99.90;;;;;;5096512;28;20048;-78
2022/10/08 09:22:48;;;;;;;3.88;1.50;;;14.10;99.90;;;;;;5113481;28;20531;-82
2022/10/08 09:25:20;;;;;;;6.80;1.30;;;14.20;99.90;;;;;;5113081;28;20039;-80
2022/10/08 09:27:53;;;;;;;11.00;1.30;;;13.90;99.90;;;;;;5112372;28;20040;-81
2022/10/08 09:30:31;;;;;;;5.43;1.83;;;14.30;99.90;;;;;;5096064;28;20122;-80
2022/10/08 09:33:20;;;;;;;6.07;1.88;;;14.20;99.90;;;;;;5112953;28;20108;-79
2022/10/08 09:35:49;;;;;;;9.93;1.42;;;14.50;99.90;;;;;;5112590;28;20047;-82
2022/10/08 09:38:23;;;;;;;8.18;1.35;;;14.40;99.90;;;;;;5096012;28;20395;-82
2022/10/08 09:41:16;;;;;;;4.75;1.50;;;14.70;99.90;;;;;;5096260;28;20050;-80
2022/10/08 09:43:42;;;;;;;7.32;2.05;;;14.50;99.90;;;;;;5112757;28;20057;-80
2022/10/08 09:46:26;;;;;;;10.90;3.13;;;14.40;99.90;;;;;;5112753;28;20426;-83
2022/10/08 09:48:52;;;;;;;5.72;1.45;;;14.50;99.90;;;;;;5113466;28;20533;-84
2022/10/08 09:51:18;;;;;;;5.50;1.92;;;;;;;;;;5095816;28;20082;-82
2022/10/08 09:53:48;;;;;;;5.65;2.20;;;14.90;99.90;;;;;;5112475;28;20047;-83
2022/10/08 09:56:25;;;;;;;6.22;1.55;;;14.60;99.90;;;;;;5112860;28;20134;-80
2022/10/08 09:59:00;;;;;;;6.88;1.35;;;14.70;99.90;;;;;;5095921;28;20048;-77
2022/10/08 10:01:30;;;;;;;7.47;1.83;;;14.40;99.90;;;;;;5112556;28;20491;-83
2022/10/08 10:04:00;;;;;;;7.38;1.40;;;14.30;99.90;;;;;;5113135;28;20039;-80
2022/10/08 10:06:37;;;;;;;10.07;2.42;;;14.40;99.90;;;;;;5095577;28;20139;-81
2022/10/08 10:09:28;;;;;;;7.75;1.98;;;14.70;99.90;;;;;;5112403;28;20075;-78
2022/10/08 10:12:04;;;;;;;6.80;1.60;;;14.40;99.90;;;;;;5095576;28;20053;-84
2022/10/08 10:14:44;;;;;;;2.83;1.35;;;14.70;99.90;;;;;;5112600;28;20044;-84
2022/10/08 10:17:37;;;;;;;7.47;1.63;;;14.90;99.90;;;;;;5112586;28;20557;-84
2022/10/08 10:20:17;;;;;;;10.38;2.95;;;14.60;99.90;;;;;;5112431;28;20046;-77
2022/10/08 10:23:01;;;;;;;5.18;1.83;;;14.60;99.90;;;;;;5095462;28;20046;-82
2022/10/08 10:25:33;;;;;;;8.20;2.28;;;14.60;99.90;;;;;;5096162;28;20134;-80
2022/10/08 10:28:05;;;;;;;4.97;1.55;;;14.70;99.90;;;;;;5112320;28;20056;-85
2022/10/08 10:30:41;;;;;;;7.70;1.38;;;14.80;99.90;;;;;;5112443;28;20043;-82
2022/10/08 10:33:16;;;;;;;9.35;3.08;;;14.60;99.90;;;;;;5112453;28;20499;-85
2022/10/08 10:35:51;;;;;;;10.02;2.03;;;14.80;99.90;;;;;;5112529;28;20052;-82
2022/10/08 10:38:27;;;;;;;30.25;4.10;;;14.60;99.90;;;;;;5112184;28;20044;-83
2022/10/08 10:41:21;;;;;;;8.40;1.40;;;14.70;99.90;;;;;;5116145;28;20051;-80
2022/10/08 10:44:04;;;;;;;5.32;1.50;;;14.90;99.90;;;;;;5117278;28;20058;-81
2022/10/08 10:46:51;;;;;;;6.05;1.40;;;14.60;99.90;;;;;;5116080;28;20122;-83
2022/10/08 10:49:20;;;;;;;5.90;1.80;;;15.00;99.90;;;;;;5116658;28;20086;-86
2022/10/08 10:51:45;;;;;;;9.63;2.25;;;15.00;99.90;;;;;;5099041;28;20044;-85
2022/10/08 10:54:39;;;;;;;5.25;2.53;;;14.80;99.90;;;;;;5099522;28;20392;-88
2022/10/08 10:57:21;;;;;;;8.90;1.80;;;15.10;99.90;;;;;;5116063;28;20048;-87
2022/10/08 11:00:19;;;;;;;3.03;1.20;;;15.10;99.90;;;;;;5116528;28;20044;-90
2022/10/08 11:03:05;;;;;;;12.70;3.05;;;15.00;99.90;;;;;;5098797;28;20058;-88
2022/10/08 11:05:33;;;;;;;8.45;1.58;;;15.30;99.90;;;;;;5116018;28;20495;-88
2022/10/08 11:08:14;;;;;;;7.13;1.85;;;15.00;99.90;;;;;;5115925;28;20040;-88
2022/10/08 11:10:56;;;;;;;6.95;1.85;;;15.10;99.90;;;;;;5098732;28;20050;-82
2022/10/08 11:13:43;;;;;;;2.75;1.50;;;14.90;99.90;;;;;;5115846;28;20044;-87
2022/10/08 11:16:16;;;;;;;8.30;1.63;;;15.00;99.90;;;;;;5115906;28;20043;-89
2022/10/08 11:18:51;;;;;;;14.30;2.78;;;15.10;99.90;;;;;;5116312;28;20082;-91
2022/10/08 11:21:54;;;;;;;9.38;1.55;;;15.10;99.90;;;;;;5099205;28;20063;-91
2022/10/08 11:24:47;;;;;;;8.30;2.95;;;15.20;99.90;;;;;;5098612;28;20047;-91
2022/10/08 11:27:13;;;;;;;5.57;1.30;;;;;;;;;;5115921;28;20036;-90
2022/10/08 11:29:39;;;;;;;3.17;1.20;;;15.10;99.90;;;;;;5115605;28;20039;-88
2022/10/08 11:32:18;;;;;;;5.57;1.45;;;15.10;99.90;;;;;;5116030;28;20066;-92
2022/10/08 11:35:10;;;;;;;8.82;1.20;;;15.20;99.90;;;;;;5098221;28;20051;-87
2022/10/08 11:38:05;;;;;;;8.77;1.33;;;14.30;99.90;;;;;;5116046;28;20054;-85
2022/10/08 11:40:36;;;;;;;3.30;1.42;;;14.50;99.90;;;;;;5099243;28;20067;-92
2022/10/08 11:43:01;;;;;;;3.33;1.48;;;14.40;99.90;;;;;;5098280;28;20047;-91
2022/10/08 11:45:27;;;;;;;2.47;1.30;;;;;;;;;;5116826;28;20048;-88
2022/10/08 11:47:56;;;;;;;3.83;1.48;;;14.50;99.90;;;;;;5097892;28;20506;-83
2022/10/08 11:50:33;;;;;;;8.07;1.70;;;14.70;99.90;;;;;;5097422;28;20056;-86
2022/10/08 11:53:17;;;;;;;4.95;1.60;;;14.70;99.90;;;;;;5114741;28;20495;-86
2022/10/08 11:55:48;;;;;;;;;;;14.60;99.90;;;;;;5098959;28;20043;-86
2022/10/08 11:58:34;;;;;;;7.88;1.75;;;14.90;99.90;;;;;;5114677;28;19926;-79
2022/10/08 12:01:05;;;;;;;9.40;2.10;;;14.70;99.90;;;;;;5114872;28;20144;-82
2022/10/08 12:03:35;;;;;;;4.93;1.88;;;14.80;99.90;;;;;;5114340;28;20411;-86
2022/10/08 12:06:25;;;;;;;8.68;1.83;;;14.90;99.90;;;;;;5115148;28;20042;-84
2022/10/08 12:08:56;;;;;;;11.05;2.13;;;15.10;99.90;;;;;;5114325;28;20092;-84
2022/10/08 12:11:30;;;;;;;14.55;3.90;;;15.00;99.90;;;;;;5114366;28;20408;-79
2022/10/08 12:14:15;;;;;;;7.03;1.80;;;15.10;99.90;;;;;;5097310;28;20100;-79
2022/10/08 12:16:47;;;;;;;7.35;1.63;;;15.30;99.90;;;;;;5097829;28;20043;-78
2022/10/08 12:19:34;;;;;;;5.40;1.70;;;15.20;99.90;;;;;;5114297;28;20082;-85
2022/10/08 12:22:00;;;;;;;4.65;2.22;;;;;;;;;;5097077;28;20134;-84
2022/10/08 12:24:38;;;;;;;12.38;3.17;;;15.00;99.90;;;;;;5114431;28;20079;-85
2022/10/08 12:27:16;;;;;;;7.57;1.58;;;;;;;;;;5113917;28;20043;-79
2022/10/08 12:29:53;;;;;;;5.05;1.30;;;14.90;99.90;;;;;;5115165;28;20130;-76
2022/10/08 12:32:21;;;;;;;7.95;1.52;;;14.90;99.90;;;;;;5114540;28;20071;-78
2022/10/08 12:34:47;;;;;;;9.10;1.73;;;;;;;;;;5113778;28;20580;-80
2022/10/08 12:37:45;;;;;;;11.73;5.93;;;14.80;99.90;;;;;;5098289;28;20043;-86
2022/10/08 12:40:25;;;;;;;7.25;2.15;;;15.10;99.90;;;;;;5097213;28;20044;-82
2022/10/08 12:43:15;;;;;;;3.78;1.23;;;14.90;99.90;;;;;;5096760;28;20051;-78
2022/10/08 12:45:56;;;;;;;2.65;1.05;;;14.40;99.90;;;;;;5096931;28;20047;-82
2022/10/08 12:48:45;;;;;;;2.22;1.20;;;14.30;99.90;;;;;;5113711;28;20043;-78
2022/10/08 12:51:24;;;;;;;5.53;1.75;;;13.70;99.90;;;;;;5113854;28;20506;-82
2022/10/08 12:53:50;;;;;;;4.53;1.30;;;13.70;99.90;;;;;;5113512;28;20039;-83
2022/10/08 12:56:27;;;;;;;5.60;1.08;;;13.50;99.90;;;;;;5113396;28;20055;-83
2022/10/08 12:59:00;;;;;;;3.33;1.10;;;13.40;99.90;;;;;;5096491;28;20126;-84
2022/10/08 13:01:26;;;;;;;2.20;1.25;;;;;;;;;;5096273;28;20043;-82
2022/10/08 13:04:14;;;;;;;3.13;1.35;;;13.20;99.90;;;;;;5096361;28;20517;-83
2022/10/08 13:06:40;;;;;;;4.53;1.00;;;;;;;;;;5113343;28;20048;-82
2022/10/08 13:09:32;;;;;;;2.53;0.90;;;13.20;99.90;;;;;;5096593;28;20040;-79
2022/10/08 13:12:00;;;;;;;2.40;0.82;;;13.30;99.90;;;;;;5096313;28;20051;-81
2022/10/08 13:14:45;;;;;;;4.40;1.42;;;13.20;99.90;;;;;;5096187;28;20048;-78
2022/10/08 13:17:32;;;;;;;3.80;1.33;;;13.20;99.90;;;;;;5113205;28;20035;-83
2022/10/08 13:20:15;;;;;;;5.55;1.70;;;13.30;99.90;;;;;;5114298;28;20582;-82
2022/10/08 13:22:41;;;;;;;6.60;2.40;;;13.50;99.90;;;;;;5096340;28;20085;-78
2022/10/08 13:25:37;;;;;;;5.25;2.03;;;13.40;99.90;;;;;;5113354;28;20429;-81
2022/10/08 13:28:32;;;;;;;4.45;1.73;;;13.50;99.90;;;;;;5112962;28;20075;-78
2022/10/08 13:30:58;;;;;;;3.15;1.70;;;13.80;99.90;;;;;;5071377;28;20067;-78
2022/10/08 13:33:28;;;;;;;6.30;2.75;;;13.80;99.90;;;;;;5054601;28;20048;-82
2022/10/08 13:36:01;;;;;;;6.03;2.28;;;13.70;99.90;;;;;;5054766;28;20059;-82
2022/10/08 13:38:31;;;;;;;4.30;1.55;;;13.90;99.90;;;;;;5054974;28;20083;-84
2022/10/08 13:41:04;;;;;;;4.70;1.40;;;14.00;99.90;;;;;;5071323;28;20088;-82